createdAt,value
2019-05-13T00:02:26.895Z,55.74
2019-05-13T00:04:58.314Z,55.02
2019-05-13T00:07:28.896Z,55.76
2019-05-13T00:09:59.462Z,55.21
2019-05-13T00:12:30.032Z,55.25
2019-05-13T00:15:00.612Z,56.58
2019-05-13T00:17:33.646Z,54.66
2019-05-13T00:20:04.608Z,56.08
2019-05-13T00:22:35.173Z,55.40
2019-05-13T00:25:07.360Z,55.34
2019-05-13T00:27:38.031Z,55.26
2019-05-13T00:30:09.142Z,54.53
2019-05-13T00:32:39.714Z,55.68
2019-05-13T00:35:11.456Z,56.40
2019-05-13T00:37:44.389Z,54.81
2019-05-13T00:40:15.142Z,55.28
2019-05-13T00:42:45.722Z,55.96
2019-05-13T00:45:16.406Z,55.30
2019-05-13T00:47:46.984Z,55.48
2019-05-13T00:50:17.552Z,55.79
2019-05-13T00:52:53.478Z,55.30
2019-05-13T00:55:23.849Z,55.86
2019-05-13T00:57:54.479Z,54.74
2019-05-13T01:00:25.061Z,57.40
2019-05-13T01:02:55.639Z,56.26
2019-05-13T01:05:26.210Z,56.78
2019-05-13T01:07:56.805Z,56.59
2019-05-13T01:10:27.419Z,57.09
2019-05-13T01:12:57.987Z,56.88
2019-05-13T01:15:28.552Z,56.21
2019-05-13T01:17:59.378Z,56.81
2019-05-13T01:20:29.958Z,56.47
2019-05-13T01:23:00.520Z,56.57
2019-05-13T01:25:33.476Z,56.19
2019-05-13T01:28:04.513Z,55.92
2019-05-13T01:30:35.606Z,55.73
2019-05-13T01:33:06.190Z,55.87
2019-05-13T01:35:38.252Z,55.67
2019-05-13T01:38:08.873Z,55.87
2019-05-13T01:40:39.427Z,55.73
2019-05-13T01:43:10.021Z,55.52
2019-05-13T01:45:40.600Z,55.43
2019-05-13T01:48:13.868Z,55.19
2019-05-13T01:50:44.487Z,55.78
2019-05-13T01:53:15.337Z,55.47
2019-05-13T01:55:45.895Z,55.70
2019-05-13T01:58:16.597Z,56.27
2019-05-13T02:00:47.165Z,56.11
2019-05-13T02:03:17.760Z,55.59
2019-05-13T02:05:48.318Z,55.72
2019-05-13T02:08:18.918Z,56.28
2019-05-13T02:10:56.896Z,55.27
2019-05-13T02:13:27.477Z,55.76
2019-05-13T02:15:58.086Z,55.98
2019-05-13T02:18:28.663Z,56.61
2019-05-13T02:20:59.245Z,57.10
2019-05-13T02:23:29.827Z,56.47
2019-05-13T02:26:04.230Z,56.34
2019-05-13T02:28:34.083Z,56.33
2019-05-13T02:31:04.648Z,55.86
2019-05-13T02:33:35.231Z,56.12
2019-05-13T02:36:05.793Z,56.09
2019-05-13T02:38:36.358Z,56.10
2019-05-13T02:41:07.115Z,56.13
2019-05-13T02:43:41.171Z,56.26
2019-05-13T02:46:12.875Z,56.69
2019-05-13T02:48:42.584Z,56.15
2019-05-13T02:51:13.299Z,56.47
2019-05-13T02:53:43.952Z,56.66
2019-05-13T02:56:14.524Z,56.85
2019-05-13T02:58:45.091Z,56.43
2019-05-13T03:01:16.451Z,56.57
2019-05-13T03:03:46.999Z,56.76
2019-05-13T03:06:17.577Z,57.02
2019-05-13T03:08:50.276Z,56.72
2019-05-13T03:11:22.736Z,56.45
2019-05-13T03:13:53.229Z,57.81
2019-05-13T03:16:32.704Z,58.08
2019-05-13T03:19:03.458Z,57.59
2019-05-13T03:21:34.036Z,57.93
2019-05-13T03:24:04.806Z,57.01
2019-05-13T03:26:36.424Z,57.22
2019-05-13T03:29:06.982Z,57.60
2019-05-13T03:31:37.574Z,57.05
2019-05-13T03:34:08.168Z,57.18
2019-05-13T03:36:45.115Z,57.53
2019-05-13T03:39:16.409Z,56.92
2019-05-13T03:41:48.123Z,58.04
2019-05-13T03:44:23.677Z,57.91
2019-05-13T03:46:56.489Z,57.85
2019-05-13T03:49:32.342Z,58.49
2019-05-13T03:52:03.047Z,57.71
2019-05-13T03:54:34.410Z,57.43
2019-05-13T03:57:05.438Z,56.77
2019-05-13T03:59:36.377Z,57.62
2019-05-13T04:02:07.029Z,57.43
2019-05-13T04:04:37.662Z,57.09
2019-05-13T04:07:08.226Z,57.22
2019-05-13T04:09:42.124Z,56.67
2019-05-13T04:12:13.507Z,56.34
2019-05-13T04:14:43.869Z,56.25
2019-05-13T04:17:15.173Z,56.55
2019-05-13T04:19:45.849Z,56.85
2019-05-13T04:22:16.453Z,56.63
2019-05-13T04:24:47.069Z,56.70
2019-05-13T04:27:17.998Z,56.45
2019-05-13T04:29:48.569Z,56.93
2019-05-13T04:32:19.132Z,55.96
2019-05-13T04:34:52.660Z,56.43
2019-05-13T04:37:22.462Z,56.58
2019-05-13T04:39:56.295Z,55.78
2019-05-13T04:42:25.486Z,55.94
2019-05-13T04:44:56.213Z,55.48
2019-05-13T04:47:26.862Z,56.92
2019-05-13T04:49:57.431Z,58.21
2019-05-13T04:52:28.350Z,59.41
2019-05-13T04:54:58.969Z,59.73
2019-05-13T04:57:32.965Z,61.03
2019-05-13T05:00:04.138Z,61.80
2019-05-13T05:02:53.997Z,60.09
2019-05-13T05:05:42.063Z,60.18
2019-05-13T05:08:35.812Z,59.63
2019-05-13T05:11:33.609Z,57.85
2019-05-13T05:14:15.968Z,58.40
2019-05-13T05:17:12.320Z,56.96
2019-05-13T05:20:13.269Z,55.83
2019-05-13T05:23:21.276Z,55.87
2019-05-13T05:26:28.129Z,55.50
2019-05-13T05:29:05.067Z,53.83
2019-05-13T05:31:41.559Z,54.00
2019-05-13T05:34:34.923Z,55.85
2019-05-13T05:37:28.290Z,55.79
2019-05-13T05:40:02.009Z,55.32
2019-05-13T05:42:34.639Z,53.38
2019-05-13T05:45:06.759Z,52.44
2019-05-13T05:47:41.752Z,51.32
2019-05-13T05:50:12.265Z,50.40
2019-05-13T05:52:46.023Z,51.04
2019-05-13T05:55:16.611Z,49.77
2019-05-13T05:57:47.876Z,49.37
2019-05-13T06:00:22.002Z,48.67
2019-05-13T06:02:54.547Z,47.88
2019-05-13T06:05:26.433Z,46.43
2019-05-13T06:07:57.009Z,47.10
2019-05-13T06:10:27.925Z,46.63
2019-05-13T06:13:01.823Z,47.39
2019-05-13T06:15:33.279Z,47.68
2019-05-13T06:18:03.862Z,46.77
2019-05-13T06:20:34.527Z,45.01
2019-05-13T06:23:05.106Z,44.46
2019-05-13T06:25:35.654Z,43.34
2019-05-13T06:28:06.383Z,42.26
2019-05-13T06:30:37.018Z,42.17
2019-05-13T06:33:07.594Z,43.71
2019-05-13T06:35:41.520Z,43.43
2019-05-13T06:38:11.838Z,43.40
2019-05-13T06:40:42.606Z,42.01
2019-05-13T06:43:13.141Z,42.19
2019-05-13T06:45:43.722Z,42.79
2019-05-13T06:48:14.305Z,44.96
2019-05-13T06:50:44.889Z,46.16
2019-05-13T06:53:15.568Z,46.07
2019-05-13T06:55:46.119Z,46.40
2019-05-13T06:58:16.709Z,46.92
2019-05-13T07:00:47.410Z,47.85
2019-05-13T07:03:17.987Z,48.19
2019-05-13T07:05:48.864Z,48.50
2019-05-13T07:08:19.430Z,47.05
2019-05-13T07:10:51.545Z,46.66
2019-05-13T07:13:22.359Z,46.82
2019-05-13T07:15:52.922Z,46.57
2019-05-13T07:18:23.474Z,47.20
2019-05-13T07:20:54.559Z,46.62
2019-05-13T07:23:25.116Z,47.25
2019-05-13T07:25:55.687Z,49.06
2019-05-13T07:28:26.236Z,47.71
2019-05-13T07:30:56.813Z,48.27
2019-05-13T07:33:27.462Z,46.91
2019-05-13T07:35:58.828Z,47.05
2019-05-13T07:38:32.213Z,46.88
2019-05-13T07:41:03.968Z,45.55
2019-05-13T07:43:34.531Z,44.56
2019-05-13T07:46:05.252Z,43.66
2019-05-13T07:48:35.832Z,44.56
2019-05-13T07:51:06.530Z,45.32
2019-05-13T07:53:37.072Z,46.17
2019-05-13T07:56:07.645Z,45.47
2019-05-13T07:58:38.205Z,45.61
2019-05-13T08:01:12.016Z,45.44
2019-05-13T08:03:42.135Z,44.33
2019-05-13T08:06:13.023Z,44.38
2019-05-13T08:08:44.598Z,43.93
2019-05-13T08:11:15.150Z,45.63
2019-05-13T08:13:45.729Z,44.76
2019-05-13T08:16:16.389Z,46.60
2019-05-13T08:18:46.945Z,44.42
2019-05-13T08:21:17.533Z,46.64
2019-05-13T08:23:48.138Z,45.90
2019-05-13T08:26:18.710Z,45.26
2019-05-13T08:28:57.989Z,45.84
2019-05-13T08:31:21.821Z,45.83
2019-05-13T08:33:52.501Z,43.46
2019-05-13T08:36:23.606Z,43.56
2019-05-13T08:38:55.288Z,43.52
2019-05-13T08:41:25.886Z,43.92
2019-05-13T08:43:56.731Z,43.26
2019-05-13T08:46:27.326Z,41.02
2019-05-13T08:48:58.057Z,41.13
2019-05-13T08:51:31.355Z,40.36
2019-05-13T08:54:02.602Z,42.23
2019-05-13T08:56:33.178Z,43.94
2019-05-13T08:59:03.726Z,43.91
2019-05-13T09:01:34.287Z,42.49
2019-05-13T09:04:04.867Z,41.40
2019-05-13T09:06:36.015Z,41.35
2019-05-13T09:09:11.494Z,40.83
2019-05-13T09:11:42.299Z,42.95
2019-05-13T09:14:12.900Z,43.03
2019-05-13T09:16:44.212Z,41.35
2019-05-13T09:19:16.290Z,39.46
2019-05-13T09:21:48.043Z,37.95
2019-05-13T09:24:26.121Z,37.99
2019-05-13T09:26:52.719Z,38.97
2019-05-13T09:29:23.421Z,40.66
2019-05-13T09:31:54.000Z,40.86
2019-05-13T09:34:24.566Z,38.02
2019-05-13T09:36:55.235Z,37.68
2019-05-13T09:39:27.274Z,37.17
2019-05-13T09:41:57.840Z,34.60
2019-05-13T09:44:28.411Z,35.40
2019-05-13T09:47:02.208Z,35.39
2019-05-13T09:49:33.012Z,33.32
2019-05-13T09:52:04.017Z,35.01
2019-05-13T09:54:34.581Z,34.38
2019-05-13T09:57:05.251Z,36.46
2019-05-13T09:59:35.938Z,35.12
2019-05-13T10:02:06.648Z,34.95
2019-05-13T10:04:37.328Z,33.94
2019-05-13T10:07:08.189Z,34.14
2019-05-13T10:09:38.773Z,35.86
2019-05-13T10:12:12.154Z,38.72
2019-05-13T10:14:41.800Z,37.83
2019-05-13T10:17:13.248Z,34.57
2019-05-13T10:19:43.983Z,36.54
2019-05-13T10:22:14.539Z,36.11
2019-05-13T10:24:45.173Z,36.11
2019-05-13T10:27:18.791Z,37.06
2019-05-13T10:29:48.615Z,39.39
2019-05-13T10:32:21.745Z,38.75
2019-05-13T10:34:53.540Z,38.83
2019-05-13T10:37:24.135Z,39.26
2019-05-13T10:39:54.843Z,40.37
2019-05-13T10:42:25.533Z,41.74
2019-05-13T10:44:56.371Z,40.75
2019-05-13T10:47:26.941Z,35.56
2019-05-13T10:49:57.527Z,36.98
2019-05-13T10:52:28.106Z,36.59
2019-05-13T10:54:58.864Z,38.72
2019-05-13T10:57:31.895Z,39.81
2019-05-13T11:00:03.608Z,38.52
2019-05-13T11:02:35.892Z,37.43
2019-05-13T11:05:07.125Z,36.36
2019-05-13T11:07:37.694Z,36.84
2019-05-13T11:10:08.607Z,35.38
2019-05-13T11:12:41.725Z,38.52
2019-05-13T11:15:11.604Z,38.72
2019-05-13T11:17:42.813Z,39.36
2019-05-13T11:20:13.512Z,39.01
2019-05-13T11:22:44.091Z,37.86
2019-05-13T11:25:14.917Z,38.99
2019-05-13T11:27:45.550Z,38.28
2019-05-13T11:30:16.488Z,39.19
2019-05-13T11:32:47.144Z,36.68
2019-05-13T11:35:17.706Z,36.15
2019-05-13T11:37:48.281Z,36.99
2019-05-13T11:40:19.201Z,35.51
2019-05-13T11:42:52.167Z,33.12
2019-05-13T11:45:22.527Z,32.44
2019-05-13T11:47:53.082Z,32.56
2019-05-13T11:50:23.944Z,32.09
2019-05-13T11:52:55.779Z,31.69
2019-05-13T11:55:26.358Z,34.57
2019-05-13T11:57:56.923Z,34.36
2019-05-13T12:00:48.439Z,35.29
2019-05-13T12:03:22.698Z,35.68
2019-05-13T12:05:53.774Z,34.41
2019-05-13T12:08:24.725Z,35.77
2019-05-13T12:10:55.416Z,35.43
2019-05-13T12:13:26.323Z,34.16
2019-05-13T12:15:58.761Z,33.38
2019-05-13T12:18:29.332Z,33.79
2019-05-13T12:21:03.376Z,34.93
2019-05-13T12:23:32.413Z,32.94
2019-05-13T12:26:04.357Z,34.89
2019-05-13T12:28:35.456Z,34.38
2019-05-13T12:31:06.031Z,33.20
2019-05-13T12:33:36.612Z,32.72
2019-05-13T12:36:07.243Z,33.55
2019-05-13T12:38:37.817Z,32.52
2019-05-13T12:41:08.692Z,30.16
2019-05-13T12:43:42.324Z,30.89
2019-05-13T12:46:12.526Z,29.79
2019-05-13T12:48:43.218Z,30.40
2019-05-13T12:51:13.825Z,31.23
2019-05-13T12:53:45.271Z,32.00
2019-05-13T12:56:15.878Z,32.82
2019-05-13T12:58:46.450Z,33.76
2019-05-13T13:01:17.032Z,34.74
2019-05-13T13:03:47.594Z,34.20
2019-05-13T13:06:31.301Z,34.97
2019-05-13T13:08:50.920Z,35.58
2019-05-13T13:11:22.788Z,34.37
2019-05-13T13:13:59.611Z,35.30
2019-05-13T13:16:34.016Z,34.32
2019-05-13T13:18:58.239Z,35.80
2019-05-13T13:21:34.329Z,36.31
2019-05-13T13:24:04.475Z,35.96
2019-05-13T13:26:33.774Z,36.29
2019-05-13T13:29:05.681Z,35.85
2019-05-13T13:31:36.370Z,36.47
2019-05-13T13:34:12.500Z,36.26
2019-05-13T13:36:39.213Z,35.97
2019-05-13T13:39:13.750Z,36.03
2019-05-13T13:41:43.772Z,35.30
2019-05-13T13:44:15.772Z,36.33
2019-05-13T13:46:49.317Z,37.62
2019-05-13T13:49:22.724Z,39.09
2019-05-13T13:51:50.965Z,41.58
2019-05-13T13:54:22.486Z,42.61
2019-05-13T13:56:56.234Z,43.39
2019-05-13T13:59:26.884Z,42.69
2019-05-13T14:01:57.455Z,43.43
2019-05-13T14:04:28.420Z,43.52
2019-05-13T14:07:22.185Z,42.22
2019-05-13T14:09:33.427Z,43.26
2019-05-13T14:12:04.134Z,42.42
2019-05-13T14:14:34.714Z,42.28
2019-05-13T14:17:06.969Z,41.01
2019-05-13T14:19:38.443Z,41.49
2019-05-13T14:22:08.984Z,40.73
2019-05-13T14:24:42.297Z,41.18
2019-05-13T14:27:12.249Z,41.93
2019-05-13T14:29:49.098Z,41.75
2019-05-13T14:32:15.920Z,40.25
2019-05-13T14:34:46.506Z,40.18
2019-05-13T14:37:17.174Z,41.39
2019-05-13T14:39:48.126Z,36.48
2019-05-13T14:42:18.722Z,35.89
2019-05-13T14:44:51.902Z,38.05
2019-05-13T14:47:22.401Z,36.93
2019-05-13T14:49:55.190Z,37.22
2019-05-13T14:52:26.065Z,37.51
2019-05-13T14:54:56.645Z,36.77
2019-05-13T14:57:27.334Z,39.38
2019-05-13T14:59:57.903Z,38.76
2019-05-13T15:02:28.485Z,37.46
2019-05-13T15:04:59.244Z,37.15
2019-05-13T15:07:32.179Z,37.98
2019-05-13T15:10:04.715Z,38.21
2019-05-13T15:12:36.365Z,38.16
2019-05-13T15:15:12.756Z,40.44
2019-05-13T15:17:42.982Z,38.22
2019-05-13T15:20:13.927Z,39.00
2019-05-13T15:22:44.523Z,39.75
2019-05-13T15:25:15.406Z,40.43
2019-05-13T15:27:47.716Z,41.91
2019-05-13T15:30:18.648Z,42.89
2019-05-13T15:32:49.279Z,43.29
2019-05-13T15:35:25.213Z,43.87
2019-05-13T15:37:56.440Z,43.97
2019-05-13T15:40:27.015Z,43.40
2019-05-13T15:42:57.595Z,43.02
2019-05-13T15:45:28.170Z,43.77
2019-05-13T15:47:58.571Z,44.00
2019-05-13T15:50:31.301Z,44.24
2019-05-13T15:53:02.897Z,44.20
2019-05-13T15:55:33.581Z,42.98
2019-05-13T15:58:04.187Z,43.34
2019-05-13T16:00:36.202Z,42.52
2019-05-13T16:03:06.807Z,42.63
2019-05-13T16:05:37.394Z,43.74
2019-05-13T16:08:07.993Z,44.15
2019-05-13T16:10:38.656Z,44.72
2019-05-13T16:13:11.656Z,43.35
2019-05-13T16:15:41.750Z,44.85
2019-05-13T16:18:12.437Z,44.73
2019-05-13T16:20:45.338Z,42.80
2019-05-13T16:23:15.397Z,43.50
2019-05-13T16:25:46.006Z,42.52
2019-05-13T16:28:17.503Z,41.92
2019-05-13T16:30:48.263Z,42.28
2019-05-13T16:33:18.914Z,39.35
2019-05-13T16:35:51.735Z,42.19
2019-05-13T16:38:22.117Z,40.88
2019-05-13T16:40:54.162Z,41.22
2019-05-13T16:43:25.848Z,40.28
2019-05-13T16:45:56.608Z,40.16
2019-05-13T16:48:27.240Z,41.15
2019-05-13T16:50:58.366Z,42.58
2019-05-13T16:53:31.390Z,41.90
2019-05-13T16:56:01.953Z,41.61
2019-05-13T16:58:32.769Z,43.26
2019-05-13T17:01:03.324Z,42.14
2019-05-13T17:03:33.957Z,41.81
2019-05-13T17:06:05.828Z,40.98
2019-05-13T17:08:36.416Z,39.76
2019-05-13T17:11:06.995Z,39.19
2019-05-13T17:13:37.574Z,37.61
2019-05-13T17:16:08.176Z,37.59
2019-05-13T17:18:38.784Z,36.85
2019-05-13T17:21:11.101Z,37.62
2019-05-13T17:23:43.196Z,36.05
2019-05-13T17:26:15.005Z,36.41
2019-05-13T17:28:45.600Z,36.61
2019-05-13T17:31:16.168Z,36.42
2019-05-13T17:33:46.808Z,36.67
2019-05-13T17:36:17.427Z,37.03
2019-05-13T17:38:48.008Z,36.53
2019-05-13T17:41:18.591Z,36.94
2019-05-13T17:43:49.151Z,38.81
2019-05-13T17:46:21.898Z,36.78
2019-05-13T17:48:52.492Z,37.95
2019-05-13T17:51:23.096Z,37.38
2019-05-13T17:53:53.751Z,37.33
2019-05-13T17:56:24.385Z,37.77
2019-05-13T17:58:54.965Z,37.61
2019-05-13T18:01:25.637Z,38.63
2019-05-13T18:03:56.855Z,38.07
2019-05-13T18:06:27.979Z,37.62
2019-05-13T18:09:01.070Z,36.66
2019-05-13T18:11:31.747Z,38.00
2019-05-13T18:14:02.431Z,36.77
2019-05-13T18:16:33.091Z,37.32
2019-05-13T18:19:03.851Z,36.82
2019-05-13T18:21:35.943Z,35.26
2019-05-13T18:24:06.620Z,37.58
2019-05-13T18:26:37.888Z,36.11
2019-05-13T18:29:11.951Z,37.18
2019-05-13T18:31:42.520Z,37.02
2019-05-13T18:34:13.197Z,35.83
2019-05-13T18:36:47.430Z,37.00
2019-05-13T18:39:18.127Z,36.50
2019-05-13T18:41:48.804Z,37.45
2019-05-13T18:44:19.504Z,38.34
2019-05-13T18:46:52.356Z,37.23
2019-05-13T18:49:23.856Z,38.18
2019-05-13T18:51:54.471Z,38.25
2019-05-13T18:54:25.126Z,38.59
2019-05-13T18:56:55.711Z,38.74
2019-05-13T18:59:26.281Z,38.15
2019-05-13T19:02:01.039Z,39.17
2019-05-13T19:04:31.559Z,37.91
2019-05-13T19:07:03.202Z,38.08
2019-05-13T19:09:33.790Z,39.41
2019-05-13T19:12:04.448Z,39.29
2019-05-13T19:14:35.573Z,39.39
2019-05-13T19:17:06.211Z,39.71
2019-05-13T19:19:36.798Z,40.14
2019-05-13T19:22:07.385Z,39.71
2019-05-13T19:24:37.985Z,40.40
2019-05-13T19:27:09.173Z,40.17
2019-05-13T19:29:42.574Z,40.36
2019-05-13T19:32:13.604Z,41.23
2019-05-13T19:34:45.100Z,41.93
2019-05-13T19:37:16.537Z,41.49
2019-05-13T19:39:47.647Z,43.20
2019-05-13T19:42:19.114Z,42.68
2019-05-13T19:44:51.193Z,42.71
2019-05-13T19:47:23.858Z,42.95
2019-05-13T19:49:55.312Z,43.58
2019-05-13T19:52:26.682Z,44.51
2019-05-13T19:54:57.601Z,44.49
2019-05-13T19:57:31.755Z,44.32
2019-05-13T20:00:03.851Z,44.16
2019-05-13T20:02:35.679Z,44.20
2019-05-13T20:05:09.484Z,44.25
2019-05-13T20:07:42.004Z,45.16
2019-05-13T20:10:14.692Z,45.06
2019-05-13T20:12:45.455Z,45.04
2019-05-13T20:15:17.428Z,45.32
2019-05-13T20:17:48.758Z,45.10
2019-05-13T20:20:21.290Z,45.84
2019-05-13T20:22:52.155Z,46.39
2019-05-13T20:25:22.818Z,45.87
2019-05-13T20:27:53.887Z,46.05
2019-05-13T20:30:25.940Z,46.57
2019-05-13T20:32:56.537Z,47.00
2019-05-13T20:35:28.302Z,46.31
2019-05-13T20:37:58.908Z,46.93
2019-05-13T20:40:32.127Z,47.30
2019-05-13T20:43:02.515Z,47.27
2019-05-13T20:45:33.499Z,47.53
2019-05-13T20:48:05.509Z,47.52
2019-05-13T20:50:38.185Z,47.35
2019-05-13T20:53:11.554Z,47.21
2019-05-13T20:55:41.967Z,47.35
2019-05-13T20:58:13.496Z,48.38
2019-05-13T21:00:45.080Z,48.00
2019-05-13T21:03:15.653Z,48.30
2019-05-13T21:05:46.248Z,48.46
2019-05-13T21:08:16.879Z,48.53
2019-05-13T21:10:47.486Z,48.36
2019-05-13T21:13:18.553Z,48.80
2019-05-13T21:15:51.634Z,49.14
2019-05-13T21:18:22.158Z,49.12
2019-05-13T21:20:53.084Z,48.94
2019-05-13T21:23:23.866Z,49.17
2019-05-13T21:25:54.449Z,48.30
2019-05-13T21:28:25.007Z,48.97
2019-05-13T21:30:55.610Z,49.43
2019-05-13T21:33:26.212Z,49.01
2019-05-13T21:35:56.770Z,48.63
2019-05-13T21:38:27.361Z,48.11
2019-05-13T21:40:57.954Z,48.65
2019-05-13T21:43:28.538Z,48.87
2019-05-13T21:46:01.736Z,49.25
2019-05-13T21:48:32.419Z,49.24
2019-05-13T21:51:03.707Z,49.59
2019-05-13T21:53:34.287Z,49.80
2019-05-13T21:56:05.302Z,49.78
2019-05-13T21:58:35.912Z,49.79
2019-05-13T22:01:06.487Z,50.33
2019-05-13T22:03:37.078Z,49.90
2019-05-13T22:06:07.653Z,49.81
2019-05-13T22:08:38.279Z,49.73
2019-05-13T22:11:08.888Z,49.36
2019-05-13T22:13:41.791Z,49.28
2019-05-13T22:16:11.893Z,49.50
2019-05-13T22:18:42.494Z,49.44
2019-05-13T22:21:14.164Z,49.73
2019-05-13T22:23:44.734Z,49.87
2019-05-13T22:26:15.318Z,49.70
2019-05-13T22:28:45.896Z,49.64
2019-05-13T22:31:16.472Z,49.88
2019-05-13T22:33:47.157Z,50.15
2019-05-13T22:36:17.740Z,50.26
2019-05-13T22:38:48.339Z,49.88
2019-05-13T22:41:18.922Z,50.27
2019-05-13T22:43:55.514Z,49.91
2019-05-13T22:46:21.955Z,50.17
2019-05-13T22:48:52.506Z,49.75
2019-05-13T22:51:23.289Z,49.87
2019-05-13T22:53:55.053Z,50.10
2019-05-13T22:56:25.732Z,50.40
2019-05-13T22:58:56.337Z,50.19
2019-05-13T23:01:27.020Z,50.70
2019-05-13T23:03:57.704Z,50.31
2019-05-13T23:06:28.490Z,50.68
2019-05-13T23:09:01.584Z,50.56
2019-05-13T23:11:32.207Z,51.02
2019-05-13T23:14:09.690Z,50.81
2019-05-13T23:16:35.446Z,50.75
2019-05-13T23:19:06.218Z,50.59
2019-05-13T23:21:36.818Z,50.94
2019-05-13T23:24:07.595Z,50.70
2019-05-13T23:26:38.208Z,50.82
2019-05-13T23:29:08.858Z,50.60
2019-05-13T23:31:41.494Z,50.55
2019-05-13T23:34:12.177Z,51.13
2019-05-13T23:36:43.031Z,51.24
2019-05-13T23:39:13.686Z,51.42
2019-05-13T23:41:44.266Z,51.25
2019-05-13T23:44:24.781Z,51.21
2019-05-13T23:46:47.433Z,50.79
2019-05-13T23:49:18.005Z,50.63
2019-05-13T23:51:48.583Z,51.43
2019-05-13T23:54:21.161Z,51.40
2019-05-13T23:56:51.418Z,51.44
2019-05-13T23:59:22.018Z,50.43
